Terminal Aerodrome Forecast
Issued by NWS

Home | Current Version | Previous Version | Text Only | Print | Product List | Glossary On
Versions: 1 2 3 4 5 6 7 8 9 10 11 12
000
FTUS45 KGJT 051131
TAFCNY
TAF
KCNY 051131Z 0512/0612 VRB04KT P6SM FEW120 BKN200
     FM051600 28005KT P6SM SCT150
     FM051900 30012G18KT P6SM FEW200
     FM060200 32005KT P6SM FEW200=

USA.gov is the U.S. government's official web portal to all federal, state and local government web resources and services.